sensor_id;sensor_type;location;lat;lon;timestamp;P1;durP1;ratioP1;P2;durP2;ratioP2
55672;SDS011;41554;45.366;20.400;2023-04-29T00:00:10;11.70;;;6.57;;
55672;SDS011;41554;45.366;20.400;2023-04-29T00:02:36;10.40;;;5.45;;
55672;SDS011;41554;45.366;20.400;2023-04-29T00:05:02;7.22;;;4.68;;
55672;SDS011;41554;45.366;20.400;2023-04-29T00:07:29;11.50;;;5.80;;
55672;SDS011;41554;45.366;20.400;2023-04-29T00:09:56;9.02;;;5.50;;
55672;SDS011;41554;45.366;20.400;2023-04-29T00:12:22;9.85;;;6.07;;
55672;SDS011;41554;45.366;20.400;2023-04-29T00:14:48;5.75;;;4.55;;
55672;SDS011;41554;45.366;20.400;2023-04-29T00:17:15;10.18;;;7.47;;
55672;SDS011;41554;45.366;20.400;2023-04-29T00:19:41;18.30;;;9.68;;
55672;SDS011;41554;45.366;20.400;2023-04-29T00:22:07;13.00;;;7.22;;
55672;SDS011;41554;45.366;20.400;2023-04-29T00:24:33;11.57;;;8.10;;
55672;SDS011;41554;45.366;20.400;2023-04-29T00:27:00;8.98;;;6.10;;
55672;SDS011;41554;45.366;20.400;2023-04-29T00:29:26;9.07;;;5.65;;
55672;SDS011;41554;45.366;20.400;2023-04-29T00:31:53;8.63;;;5.25;;
55672;SDS011;41554;45.366;20.400;2023-04-29T00:34:19;5.88;;;4.75;;
55672;SDS011;41554;45.366;20.400;2023-04-29T00:36:45;8.93;;;6.25;;
55672;SDS011;41554;45.366;20.400;2023-04-29T00:39:11;14.48;;;5.00;;
55672;SDS011;41554;45.366;20.400;2023-04-29T00:41:37;8.63;;;5.75;;
55672;SDS011;41554;45.366;20.400;2023-04-29T00:44:03;10.20;;;5.70;;
55672;SDS011;41554;45.366;20.400;2023-04-29T00:46:29;10.05;;;6.60;;
55672;SDS011;41554;45.366;20.400;2023-04-29T00:48:56;10.85;;;5.72;;
55672;SDS011;41554;45.366;20.400;2023-04-29T00:51:22;8.65;;;6.10;;
55672;SDS011;41554;45.366;20.400;2023-04-29T00:53:48;8.93;;;5.88;;
55672;SDS011;41554;45.366;20.400;2023-04-29T00:56:14;13.32;;;6.88;;
55672;SDS011;41554;45.366;20.400;2023-04-29T00:58:41;7.80;;;5.95;;
55672;SDS011;41554;45.366;20.400;2023-04-29T01:01:13;9.90;;;6.03;;
55672;SDS011;41554;45.366;20.400;2023-04-29T01:03:40;8.77;;;6.15;;
55672;SDS011;41554;45.366;20.400;2023-04-29T01:11:19;14.93;;;7.72;;
55672;SDS011;41554;45.366;20.400;2023-04-29T01:13:53;11.93;;;7.85;;
55672;SDS011;41554;45.366;20.400;2023-04-29T01:16:28;9.50;;;8.35;;
55672;SDS011;41554;45.366;20.400;2023-04-29T01:18:57;8.68;;;6.13;;
55672;SDS011;41554;45.366;20.400;2023-04-29T01:21:23;8.75;;;5.80;;
55672;SDS011;41554;45.366;20.400;2023-04-29T01:23:50;8.02;;;6.95;;
55672;SDS011;41554;45.366;20.400;2023-04-29T01:26:20;12.40;;;7.82;;
55672;SDS011;41554;45.366;20.400;2023-04-29T01:28:52;11.55;;;8.23;;
55672;SDS011;41554;45.366;20.400;2023-04-29T01:33:58;15.90;;;10.20;;
55672;SDS011;41554;45.366;20.400;2023-04-29T01:41:26;15.00;;;8.05;;
55672;SDS011;41554;45.366;20.400;2023-04-29T01:43:56;10.80;;;7.15;;
55672;SDS011;41554;45.366;20.400;2023-04-29T01:46:23;8.02;;;6.50;;
55672;SDS011;41554;45.366;20.400;2023-04-29T01:48:51;9.90;;;5.95;;
55672;SDS011;41554;45.366;20.400;2023-04-29T01:51:18;6.85;;;4.93;;
55672;SDS011;41554;45.366;20.400;2023-04-29T01:53:45;12.70;;;6.28;;
55672;SDS011;41554;45.366;20.400;2023-04-29T01:56:11;10.20;;;6.45;;
55672;SDS011;41554;45.366;20.400;2023-04-29T01:58:37;6.57;;;5.22;;
55672;SDS011;41554;45.366;20.400;2023-04-29T02:01:03;11.32;;;6.70;;
55672;SDS011;41554;45.366;20.400;2023-04-29T02:03:30;13.57;;;6.50;;
55672;SDS011;41554;45.366;20.400;2023-04-29T02:05:56;8.75;;;6.82;;
55672;SDS011;41554;45.366;20.400;2023-04-29T02:08:22;10.88;;;7.18;;
55672;SDS011;41554;45.366;20.400;2023-04-29T02:10:52;9.20;;;5.43;;
55672;SDS011;41554;45.366;20.400;2023-04-29T02:13:18;9.55;;;6.55;;
55672;SDS011;41554;45.366;20.400;2023-04-29T02:15:44;18.02;;;8.15;;
55672;SDS011;41554;45.366;20.400;2023-04-29T02:18:11;7.70;;;5.90;;
55672;SDS011;41554;45.366;20.400;2023-04-29T02:20:37;7.55;;;6.38;;
55672;SDS011;41554;45.366;20.400;2023-04-29T02:23:03;12.98;;;8.05;;
55672;SDS011;41554;45.366;20.400;2023-04-29T02:25:29;7.30;;;5.35;;
55672;SDS011;41554;45.366;20.400;2023-04-29T02:27:55;8.32;;;6.10;;
55672;SDS011;41554;45.366;20.400;2023-04-29T02:30:21;14.10;;;5.88;;
55672;SDS011;41554;45.366;20.400;2023-04-29T02:32:47;9.35;;;7.57;;
55672;SDS011;41554;45.366;20.400;2023-04-29T02:35:13;10.98;;;6.38;;
55672;SDS011;41554;45.366;20.400;2023-04-29T02:37:40;11.95;;;6.35;;
55672;SDS011;41554;45.366;20.400;2023-04-29T02:40:06;9.63;;;5.60;;
55672;SDS011;41554;45.366;20.400;2023-04-29T02:42:32;9.75;;;5.35;;
55672;SDS011;41554;45.366;20.400;2023-04-29T02:44:58;9.77;;;6.50;;
55672;SDS011;41554;45.366;20.400;2023-04-29T02:47:25;7.50;;;5.40;;
55672;SDS011;41554;45.366;20.400;2023-04-29T02:49:51;10.18;;;5.80;;
55672;SDS011;41554;45.366;20.400;2023-04-29T02:52:17;12.75;;;5.97;;
55672;SDS011;41554;45.366;20.400;2023-04-29T02:54:43;7.55;;;5.47;;
55672;SDS011;41554;45.366;20.400;2023-04-29T02:57:09;10.27;;;6.07;;
55672;SDS011;41554;45.366;20.400;2023-04-29T02:59:35;8.32;;;5.70;;
55672;SDS011;41554;45.366;20.400;2023-04-29T03:02:01;8.52;;;6.10;;
55672;SDS011;41554;45.366;20.400;2023-04-29T03:04:27;12.27;;;6.30;;
55672;SDS011;41554;45.366;20.400;2023-04-29T03:06:56;7.38;;;5.18;;
55672;SDS011;41554;45.366;20.400;2023-04-29T03:09:22;9.63;;;5.28;;
55672;SDS011;41554;45.366;20.400;2023-04-29T03:11:48;10.38;;;5.20;;
55672;SDS011;41554;45.366;20.400;2023-04-29T03:14:14;8.63;;;4.82;;
55672;SDS011;41554;45.366;20.400;2023-04-29T03:16:41;8.95;;;5.22;;
55672;SDS011;41554;45.366;20.400;2023-04-29T03:19:07;8.13;;;4.28;;
55672;SDS011;41554;45.366;20.400;2023-04-29T03:21:34;9.10;;;5.78;;
55672;SDS011;41554;45.366;20.400;2023-04-29T03:24:00;10.05;;;5.88;;
55672;SDS011;41554;45.366;20.400;2023-04-29T03:26:26;9.90;;;4.88;;
55672;SDS011;41554;45.366;20.400;2023-04-29T03:28:52;8.07;;;4.82;;
55672;SDS011;41554;45.366;20.400;2023-04-29T03:31:18;5.38;;;4.57;;
55672;SDS011;41554;45.366;20.400;2023-04-29T03:33:46;10.98;;;5.32;;
55672;SDS011;41554;45.366;20.400;2023-04-29T03:36:12;7.50;;;6.20;;
55672;SDS011;41554;45.366;20.400;2023-04-29T03:38:39;6.03;;;4.88;;
55672;SDS011;41554;45.366;20.400;2023-04-29T03:41:05;8.90;;;5.50;;
55672;SDS011;41554;45.366;20.400;2023-04-29T03:43:31;9.07;;;6.30;;
55672;SDS011;41554;45.366;20.400;2023-04-29T03:45:57;7.32;;;5.75;;
55672;SDS011;41554;45.366;20.400;2023-04-29T03:48:23;10.82;;;6.55;;
55672;SDS011;41554;45.366;20.400;2023-04-29T03:50:49;6.95;;;5.30;;
55672;SDS011;41554;45.366;20.400;2023-04-29T03:53:16;7.95;;;6.15;;
55672;SDS011;41554;45.366;20.400;2023-04-29T03:55:42;8.02;;;6.18;;
55672;SDS011;41554;45.366;20.400;2023-04-29T03:58:09;14.73;;;6.72;;
55672;SDS011;41554;45.366;20.400;2023-04-29T04:00:35;7.88;;;5.55;;
55672;SDS011;41554;45.366;20.400;2023-04-29T04:03:01;7.00;;;5.85;;
55672;SDS011;41554;45.366;20.400;2023-04-29T04:05:27;8.77;;;5.35;;
55672;SDS011;41554;45.366;20.400;2023-04-29T04:07:53;6.78;;;5.80;;
55672;SDS011;41554;45.366;20.400;2023-04-29T04:10:19;7.45;;;5.90;;
55672;SDS011;41554;45.366;20.400;2023-04-29T04:12:45;7.95;;;5.85;;
55672;SDS011;41554;45.366;20.400;2023-04-29T04:15:11;10.52;;;6.10;;
55672;SDS011;41554;45.366;20.400;2023-04-29T04:17:38;5.72;;;4.78;;
55672;SDS011;41554;45.366;20.400;2023-04-29T04:20:04;11.00;;;5.90;;
55672;SDS011;41554;45.366;20.400;2023-04-29T04:22:30;7.45;;;5.47;;
55672;SDS011;41554;45.366;20.400;2023-04-29T04:24:56;7.25;;;5.53;;
55672;SDS011;41554;45.366;20.400;2023-04-29T04:27:22;5.78;;;4.75;;
55672;SDS011;41554;45.366;20.400;2023-04-29T04:29:52;12.45;;;8.07;;
55672;SDS011;41554;45.366;20.400;2023-04-29T04:32:19;9.15;;;5.63;;
55672;SDS011;41554;45.366;20.400;2023-04-29T04:34:47;8.18;;;6.00;;
55672;SDS011;41554;45.366;20.400;2023-04-29T04:37:13;19.77;;;6.25;;
55672;SDS011;41554;45.366;20.400;2023-04-29T04:39:39;8.63;;;5.68;;
55672;SDS011;41554;45.366;20.400;2023-04-29T04:42:05;12.73;;;6.53;;
55672;SDS011;41554;45.366;20.400;2023-04-29T04:44:31;16.85;;;5.35;;
55672;SDS011;41554;45.366;20.400;2023-04-29T04:46:57;11.48;;;4.90;;
55672;SDS011;41554;45.366;20.400;2023-04-29T04:49:26;9.52;;;6.35;;
55672;SDS011;41554;45.366;20.400;2023-04-29T04:51:52;9.95;;;6.55;;
55672;SDS011;41554;45.366;20.400;2023-04-29T04:54:18;7.32;;;6.10;;
55672;SDS011;41554;45.366;20.400;2023-04-29T04:56:45;8.63;;;5.88;;
55672;SDS011;41554;45.366;20.400;2023-04-29T04:59:12;11.35;;;6.88;;
55672;SDS011;41554;45.366;20.400;2023-04-29T05:01:38;6.30;;;5.63;;
55672;SDS011;41554;45.366;20.400;2023-04-29T05:04:04;10.43;;;7.40;;
55672;SDS011;41554;45.366;20.400;2023-04-29T05:06:30;8.15;;;4.65;;
55672;SDS011;41554;45.366;20.400;2023-04-29T05:08:56;9.93;;;6.50;;
55672;SDS011;41554;45.366;20.400;2023-04-29T05:11:22;12.85;;;7.95;;
55672;SDS011;41554;45.366;20.400;2023-04-29T05:13:48;10.40;;;6.72;;
55672;SDS011;41554;45.366;20.400;2023-04-29T05:16:14;12.63;;;7.20;;
55672;SDS011;41554;45.366;20.400;2023-04-29T05:18:42;9.18;;;7.82;;
55672;SDS011;41554;45.366;20.400;2023-04-29T05:21:10;12.85;;;6.93;;
55672;SDS011;41554;45.366;20.400;2023-04-29T05:23:36;10.43;;;7.72;;
55672;SDS011;41554;45.366;20.400;2023-04-29T05:26:02;12.32;;;7.45;;
55672;SDS011;41554;45.366;20.400;2023-04-29T05:28:28;9.82;;;6.57;;
55672;SDS011;41554;45.366;20.400;2023-04-29T05:30:54;9.57;;;7.05;;
55672;SDS011;41554;45.366;20.400;2023-04-29T05:33:21;11.52;;;8.02;;
55672;SDS011;41554;45.366;20.400;2023-04-29T05:35:47;9.35;;;6.40;;
55672;SDS011;41554;45.366;20.400;2023-04-29T05:38:13;7.53;;;6.28;;
55672;SDS011;41554;45.366;20.400;2023-04-29T05:40:39;9.70;;;7.25;;
55672;SDS011;41554;45.366;20.400;2023-04-29T05:43:05;9.70;;;5.60;;
55672;SDS011;41554;45.366;20.400;2023-04-29T05:45:31;8.38;;;6.43;;
55672;SDS011;41554;45.366;20.400;2023-04-29T05:47:57;9.63;;;6.97;;
55672;SDS011;41554;45.366;20.400;2023-04-29T05:50:23;10.45;;;7.78;;
55672;SDS011;41554;45.366;20.400;2023-04-29T05:52:49;10.50;;;6.55;;
55672;SDS011;41554;45.366;20.400;2023-04-29T05:55:16;10.75;;;7.38;;
55672;SDS011;41554;45.366;20.400;2023-04-29T05:57:42;14.20;;;8.15;;
55672;SDS011;41554;45.366;20.400;2023-04-29T06:00:08;9.02;;;6.05;;
55672;SDS011;41554;45.366;20.400;2023-04-29T06:02:34;12.88;;;8.50;;
55672;SDS011;41554;45.366;20.400;2023-04-29T06:05:00;15.70;;;7.18;;
55672;SDS011;41554;45.366;20.400;2023-04-29T06:07:26;10.30;;;6.63;;
55672;SDS011;41554;45.366;20.400;2023-04-29T06:09:52;16.20;;;7.78;;
55672;SDS011;41554;45.366;20.400;2023-04-29T06:12:18;11.05;;;7.03;;
55672;SDS011;41554;45.366;20.400;2023-04-29T06:14:44;12.60;;;8.85;;
55672;SDS011;41554;45.366;20.400;2023-04-29T06:17:11;12.63;;;7.80;;
55672;SDS011;41554;45.366;20.400;2023-04-29T06:19:37;13.60;;;7.28;;
55672;SDS011;41554;45.366;20.400;2023-04-29T06:22:03;18.67;;;8.15;;
55672;SDS011;41554;45.366;20.400;2023-04-29T06:24:29;11.02;;;8.40;;
55672;SDS011;41554;45.366;20.400;2023-04-29T06:26:55;13.13;;;8.10;;
55672;SDS011;41554;45.366;20.400;2023-04-29T06:29:21;9.82;;;6.47;;
55672;SDS011;41554;45.366;20.400;2023-04-29T06:31:47;15.35;;;8.70;;
55672;SDS011;41554;45.366;20.400;2023-04-29T06:34:13;8.32;;;7.43;;
55672;SDS011;41554;45.366;20.400;2023-04-29T06:36:39;8.93;;;7.32;;
55672;SDS011;41554;45.366;20.400;2023-04-29T06:39:05;13.15;;;6.60;;
55672;SDS011;41554;45.366;20.400;2023-04-29T06:41:32;11.63;;;7.20;;
55672;SDS011;41554;45.366;20.400;2023-04-29T06:44:00;9.95;;;7.95;;
55672;SDS011;41554;45.366;20.400;2023-04-29T06:46:26;8.05;;;6.28;;
55672;SDS011;41554;45.366;20.400;2023-04-29T06:48:53;10.20;;;8.38;;
55672;SDS011;41554;45.366;20.400;2023-04-29T06:51:19;12.30;;;6.43;;
55672;SDS011;41554;45.366;20.400;2023-04-29T06:53:45;10.70;;;6.53;;
55672;SDS011;41554;45.366;20.400;2023-04-29T06:56:12;9.98;;;5.88;;
55672;SDS011;41554;45.366;20.400;2023-04-29T06:58:38;7.53;;;5.95;;
55672;SDS011;41554;45.366;20.400;2023-04-29T07:01:04;12.52;;;7.05;;
55672;SDS011;41554;45.366;20.400;2023-04-29T07:03:32;15.48;;;6.35;;
55672;SDS011;41554;45.366;20.400;2023-04-29T07:05:58;9.48;;;7.45;;
55672;SDS011;41554;45.366;20.400;2023-04-29T07:08:24;12.10;;;7.18;;
55672;SDS011;41554;45.366;20.400;2023-04-29T07:10:54;11.07;;;8.23;;
55672;SDS011;41554;45.366;20.400;2023-04-29T07:13:20;10.65;;;6.15;;
55672;SDS011;41554;45.366;20.400;2023-04-29T07:15:46;8.52;;;6.03;;
55672;SDS011;41554;45.366;20.400;2023-04-29T07:18:12;15.57;;;6.57;;
55672;SDS011;41554;45.366;20.400;2023-04-29T07:20:38;11.10;;;8.27;;
55672;SDS011;41554;45.366;20.400;2023-04-29T07:23:05;9.82;;;6.40;;
55672;SDS011;41554;45.366;20.400;2023-04-29T07:25:31;13.85;;;6.10;;
55672;SDS011;41554;45.366;20.400;2023-04-29T07:27:58;8.65;;;6.68;;
55672;SDS011;41554;45.366;20.400;2023-04-29T07:30:24;12.00;;;5.60;;
55672;SDS011;41554;45.366;20.400;2023-04-29T07:32:50;15.57;;;8.52;;
55672;SDS011;41554;45.366;20.400;2023-04-29T07:35:16;7.95;;;5.55;;
55672;SDS011;41554;45.366;20.400;2023-04-29T07:37:42;10.57;;;5.93;;
55672;SDS011;41554;45.366;20.400;2023-04-29T07:40:09;8.75;;;6.03;;
55672;SDS011;41554;45.366;20.400;2023-04-29T07:42:35;15.10;;;7.63;;
55672;SDS011;41554;45.366;20.400;2023-04-29T07:45:01;9.48;;;5.15;;
55672;SDS011;41554;45.366;20.400;2023-04-29T07:47:27;13.48;;;5.75;;
55672;SDS011;41554;45.366;20.400;2023-04-29T07:49:53;9.38;;;5.10;;
55672;SDS011;41554;45.366;20.400;2023-04-29T07:52:19;6.32;;;3.85;;
55672;SDS011;41554;45.366;20.400;2023-04-29T07:54:46;10.25;;;8.60;;
55672;SDS011;41554;45.366;20.400;2023-04-29T07:57:12;12.63;;;7.50;;
55672;SDS011;41554;45.366;20.400;2023-04-29T07:59:38;11.07;;;6.30;;
55672;SDS011;41554;45.366;20.400;2023-04-29T08:02:04;6.00;;;5.22;;
55672;SDS011;41554;45.366;20.400;2023-04-29T08:04:30;8.88;;;5.30;;
55672;SDS011;41554;45.366;20.400;2023-04-29T08:06:56;11.85;;;6.18;;
55672;SDS011;41554;45.366;20.400;2023-04-29T08:09:22;6.13;;;4.15;;
55672;SDS011;41554;45.366;20.400;2023-04-29T08:11:48;16.77;;;5.22;;
55672;SDS011;41554;45.366;20.400;2023-04-29T08:14:14;8.63;;;4.43;;
55672;SDS011;41554;45.366;20.400;2023-04-29T08:16:40;9.95;;;5.75;;
55672;SDS011;41554;45.366;20.400;2023-04-29T08:19:06;12.45;;;6.65;;
55672;SDS011;41554;45.366;20.400;2023-04-29T08:21:32;10.50;;;5.80;;
55672;SDS011;41554;45.366;20.400;2023-04-29T08:23:58;7.97;;;5.75;;
55672;SDS011;41554;45.366;20.400;2023-04-29T08:26:24;16.13;;;4.72;;
55672;SDS011;41554;45.366;20.400;2023-04-29T08:28:51;10.80;;;6.05;;
55672;SDS011;41554;45.366;20.400;2023-04-29T08:31:18;5.63;;;4.20;;
55672;SDS011;41554;45.366;20.400;2023-04-29T08:33:44;8.63;;;4.28;;
55672;SDS011;41554;45.366;20.400;2023-04-29T08:36:10;8.82;;;5.18;;
55672;SDS011;41554;45.366;20.400;2023-04-29T08:38:36;9.50;;;5.45;;
55672;SDS011;41554;45.366;20.400;2023-04-29T08:41:02;7.72;;;4.75;;
55672;SDS011;41554;45.366;20.400;2023-04-29T08:43:29;6.57;;;5.20;;
55672;SDS011;41554;45.366;20.400;2023-04-29T08:45:56;10.55;;;6.18;;
55672;SDS011;41554;45.366;20.400;2023-04-29T08:48:23;13.52;;;5.30;;
55672;SDS011;41554;45.366;20.400;2023-04-29T08:50:50;10.95;;;5.45;;
55672;SDS011;41554;45.366;20.400;2023-04-29T08:53:16;9.00;;;6.00;;
55672;SDS011;41554;45.366;20.400;2023-04-29T08:55:43;6.57;;;4.57;;
55672;SDS011;41554;45.366;20.400;2023-04-29T08:58:09;10.25;;;5.65;;
55672;SDS011;41554;45.366;20.400;2023-04-29T09:00:36;8.25;;;6.28;;
55672;SDS011;41554;45.366;20.400;2023-04-29T09:03:03;8.35;;;5.32;;
55672;SDS011;41554;45.366;20.400;2023-04-29T09:05:36;13.98;;;6.20;;
55672;SDS011;41554;45.366;20.400;2023-04-29T09:08:05;10.05;;;3.97;;
55672;SDS011;41554;45.366;20.400;2023-04-29T09:10:34;7.88;;;5.53;;
55672;SDS011;41554;45.366;20.400;2023-04-29T09:13:01;12.07;;;5.97;;
55672;SDS011;41554;45.366;20.400;2023-04-29T09:15:27;7.57;;;5.53;;
55672;SDS011;41554;45.366;20.400;2023-04-29T09:17:53;5.88;;;3.45;;
55672;SDS011;41554;45.366;20.400;2023-04-29T09:22:48;8.13;;;6.00;;
55672;SDS011;41554;45.366;20.400;2023-04-29T09:25:15;17.15;;;7.25;;
55672;SDS011;41554;45.366;20.400;2023-04-29T09:27:41;8.27;;;6.13;;
55672;SDS011;41554;45.366;20.400;2023-04-29T09:30:08;14.68;;;8.88;;
55672;SDS011;41554;45.366;20.400;2023-04-29T09:32:34;11.02;;;6.78;;
55672;SDS011;41554;45.366;20.400;2023-04-29T09:37:45;5.72;;;4.05;;
55672;SDS011;41554;45.366;20.400;2023-04-29T09:40:30;9.18;;;4.82;;
55672;SDS011;41554;45.366;20.400;2023-04-29T09:42:56;15.07;;;6.20;;
55672;SDS011;41554;45.366;20.400;2023-04-29T09:45:35;7.57;;;5.53;;
55672;SDS011;41554;45.366;20.400;2023-04-29T09:48:02;9.43;;;5.40;;
55672;SDS011;41554;45.366;20.400;2023-04-29T09:50:29;12.93;;;4.80;;
55672;SDS011;41554;45.366;20.400;2023-04-29T09:52:55;6.25;;;4.32;;
55672;SDS011;41554;45.366;20.400;2023-04-29T09:55:21;11.32;;;4.60;;
55672;SDS011;41554;45.366;20.400;2023-04-29T09:57:47;8.02;;;5.00;;
55672;SDS011;41554;45.366;20.400;2023-04-29T10:00:13;7.45;;;5.35;;
55672;SDS011;41554;45.366;20.400;2023-04-29T10:02:44;12.88;;;6.82;;
55672;SDS011;41554;45.366;20.400;2023-04-29T10:05:17;15.43;;;4.80;;
55672;SDS011;41554;45.366;20.400;2023-04-29T10:07:45;6.68;;;3.90;;
55672;SDS011;41554;45.366;20.400;2023-04-29T10:10:15;6.18;;;3.67;;
55672;SDS011;41554;45.366;20.400;2023-04-29T10:12:41;7.13;;;5.63;;
55672;SDS011;41554;45.366;20.400;2023-04-29T10:15:19;4.63;;;3.38;;
55672;SDS011;41554;45.366;20.400;2023-04-29T10:17:46;13.52;;;6.75;;
55672;SDS011;41554;45.366;20.400;2023-04-29T10:20:14;6.68;;;3.72;;
55672;SDS011;41554;45.366;20.400;2023-04-29T10:22:44;7.80;;;5.65;;
55672;SDS011;41554;45.366;20.400;2023-04-29T10:25:11;5.50;;;3.33;;
55672;SDS011;41554;45.366;20.400;2023-04-29T10:27:38;8.13;;;3.75;;
55672;SDS011;41554;45.366;20.400;2023-04-29T10:30:07;12.05;;;5.40;;
55672;SDS011;41554;45.366;20.400;2023-04-29T10:32:34;4.47;;;3.88;;
55672;SDS011;41554;45.366;20.400;2023-04-29T10:35:01;4.72;;;3.00;;
55672;SDS011;41554;45.366;20.400;2023-04-29T10:37:29;6.70;;;2.80;;
55672;SDS011;41554;45.366;20.400;2023-04-29T10:40:06;5.75;;;3.60;;
55672;SDS011;41554;45.366;20.400;2023-04-29T10:48:09;4.82;;;3.97;;
55672;SDS011;41554;45.366;20.400;2023-04-29T10:53:00;5.38;;;3.45;;
55672;SDS011;41554;45.366;20.400;2023-04-29T10:55:27;3.60;;;3.20;;
55672;SDS011;41554;45.366;20.400;2023-04-29T10:57:53;11.98;;;4.93;;
55672;SDS011;41554;45.366;20.400;2023-04-29T11:00:28;3.20;;;2.75;;
55672;SDS011;41554;45.366;20.400;2023-04-29T11:02:54;11.02;;;3.40;;
55672;SDS011;41554;45.366;20.400;2023-04-29T11:05:30;3.65;;;3.10;;
55672;SDS011;41554;45.366;20.400;2023-04-29T11:08:12;5.72;;;4.90;;
55672;SDS011;41554;45.366;20.400;2023-04-29T11:10:40;5.35;;;4.00;;
55672;SDS011;41554;45.366;20.400;2023-04-29T11:13:26;4.45;;;3.10;;
55672;SDS011;41554;45.366;20.400;2023-04-29T11:15:52;11.48;;;3.20;;
55672;SDS011;41554;45.366;20.400;2023-04-29T11:18:19;6.60;;;3.15;;
55672;SDS011;41554;45.366;20.400;2023-04-29T11:23:29;7.18;;;3.63;;
55672;SDS011;41554;45.366;20.400;2023-04-29T11:25:56;11.23;;;4.22;;
55672;SDS011;41554;45.366;20.400;2023-04-29T11:28:26;6.63;;;2.65;;
55672;SDS011;41554;45.366;20.400;2023-04-29T11:33:21;4.35;;;3.70;;
55672;SDS011;41554;45.366;20.400;2023-04-29T11:35:47;2.97;;;2.63;;
55672;SDS011;41554;45.366;20.400;2023-04-29T11:38:14;7.82;;;3.42;;
55672;SDS011;41554;45.366;20.400;2023-04-29T11:40:47;9.10;;;2.55;;
55672;SDS011;41554;45.366;20.400;2023-04-29T11:43:17;4.40;;;3.03;;
55672;SDS011;41554;45.366;20.400;2023-04-29T11:45:43;3.45;;;2.95;;
55672;SDS011;41554;45.366;20.400;2023-04-29T11:48:16;9.27;;;4.13;;
55672;SDS011;41554;45.366;20.400;2023-04-29T11:50:42;3.75;;;3.15;;
55672;SDS011;41554;45.366;20.400;2023-04-29T11:53:08;4.00;;;2.90;;
55672;SDS011;41554;45.366;20.400;2023-04-29T11:55:34;12.48;;;3.55;;
55672;SDS011;41554;45.366;20.400;2023-04-29T11:58:00;5.45;;;3.97;;
55672;SDS011;41554;45.366;20.400;2023-04-29T12:00:28;8.52;;;3.65;;
55672;SDS011;41554;45.366;20.400;2023-04-29T12:02:55;5.55;;;3.05;;
55672;SDS011;41554;45.366;20.400;2023-04-29T12:05:26;6.85;;;2.95;;
55672;SDS011;41554;45.366;20.400;2023-04-29T12:07:53;4.73;;;3.10;;
55672;SDS011;41554;45.366;20.400;2023-04-29T12:10:19;6.80;;;3.95;;
55672;SDS011;41554;45.366;20.400;2023-04-29T12:12:45;6.15;;;3.70;;
55672;SDS011;41554;45.366;20.400;2023-04-29T12:15:13;4.20;;;3.03;;
55672;SDS011;41554;45.366;20.400;2023-04-29T12:17:39;6.15;;;4.00;;
55672;SDS011;41554;45.366;20.400;2023-04-29T12:20:05;4.18;;;2.85;;
55672;SDS011;41554;45.366;20.400;2023-04-29T12:22:34;8.52;;;3.58;;
55672;SDS011;41554;45.366;20.400;2023-04-29T12:25:04;5.25;;;3.53;;
55672;SDS011;41554;45.366;20.400;2023-04-29T12:27:31;6.35;;;3.60;;
55672;SDS011;41554;45.366;20.400;2023-04-29T12:30:00;3.05;;;2.42;;
55672;SDS011;41554;45.366;20.400;2023-04-29T12:32:26;5.47;;;3.05;;
55672;SDS011;41554;45.366;20.400;2023-04-29T12:34:53;5.60;;;4.43;;
55672;SDS011;41554;45.366;20.400;2023-04-29T12:37:20;6.40;;;3.85;;
55672;SDS011;41554;45.366;20.400;2023-04-29T12:39:48;9.05;;;5.47;;
55672;SDS011;41554;45.366;20.400;2023-04-29T12:42:14;5.78;;;3.13;;
55672;SDS011;41554;45.366;20.400;2023-04-29T12:44:43;2.65;;;2.42;;
55672;SDS011;41554;45.366;20.400;2023-04-29T12:47:11;3.72;;;2.15;;
55672;SDS011;41554;45.366;20.400;2023-04-29T12:49:41;4.38;;;2.72;;
55672;SDS011;41554;45.366;20.400;2023-04-29T12:52:07;2.78;;;2.05;;
55672;SDS011;41554;45.366;20.400;2023-04-29T12:54:37;3.63;;;2.53;;
55672;SDS011;41554;45.366;20.400;2023-04-29T12:57:07;4.30;;;2.92;;
55672;SDS011;41554;45.366;20.400;2023-04-29T12:59:34;3.40;;;2.65;;
55672;SDS011;41554;45.366;20.400;2023-04-29T13:02:01;6.68;;;3.50;;
55672;SDS011;41554;45.366;20.400;2023-04-29T13:04:27;3.33;;;2.45;;
55672;SDS011;41554;45.366;20.400;2023-04-29T13:06:53;3.97;;;3.30;;
55672;SDS011;41554;45.366;20.400;2023-04-29T13:09:24;4.93;;;3.20;;
55672;SDS011;41554;45.366;20.400;2023-04-29T13:11:50;3.67;;;2.70;;
55672;SDS011;41554;45.366;20.400;2023-04-29T13:14:16;2.97;;;2.28;;
55672;SDS011;41554;45.366;20.400;2023-04-29T13:16:43;5.13;;;2.63;;
55672;SDS011;41554;45.366;20.400;2023-04-29T13:19:09;4.35;;;3.13;;
55672;SDS011;41554;45.366;20.400;2023-04-29T13:21:35;8.80;;;4.55;;
55672;SDS011;41554;45.366;20.400;2023-04-29T13:24:01;9.43;;;6.20;;
55672;SDS011;41554;45.366;20.400;2023-04-29T13:26:27;11.13;;;4.63;;
55672;SDS011;41554;45.366;20.400;2023-04-29T13:28:54;3.72;;;2.88;;
55672;SDS011;41554;45.366;20.400;2023-04-29T13:31:20;4.45;;;3.17;;
55672;SDS011;41554;45.366;20.400;2023-04-29T13:33:46;4.57;;;2.85;;
55672;SDS011;41554;45.366;20.400;2023-04-29T13:36:12;4.88;;;3.40;;
55672;SDS011;41554;45.366;20.400;2023-04-29T13:38:39;9.50;;;5.80;;
55672;SDS011;41554;45.366;20.400;2023-04-29T13:41:05;9.13;;;3.30;;
55672;SDS011;41554;45.366;20.400;2023-04-29T13:43:31;6.28;;;3.95;;
55672;SDS011;41554;45.366;20.400;2023-04-29T13:45:57;2.90;;;2.30;;
55672;SDS011;41554;45.366;20.400;2023-04-29T13:48:23;4.22;;;2.22;;
55672;SDS011;41554;45.366;20.400;2023-04-29T13:50:49;6.05;;;2.80;;
55672;SDS011;41554;45.366;20.400;2023-04-29T13:53:16;3.38;;;2.50;;
55672;SDS011;41554;45.366;20.400;2023-04-29T13:55:42;4.47;;;3.08;;
55672;SDS011;41554;45.366;20.400;2023-04-29T13:58:08;4.72;;;3.70;;
55672;SDS011;41554;45.366;20.400;2023-04-29T14:00:34;6.43;;;3.03;;
55672;SDS011;41554;45.366;20.400;2023-04-29T14:03:00;9.65;;;2.42;;
55672;SDS011;41554;45.366;20.400;2023-04-29T14:05:27;8.50;;;5.47;;
55672;SDS011;41554;45.366;20.400;2023-04-29T14:07:53;6.30;;;3.53;;
55672;SDS011;41554;45.366;20.400;2023-04-29T14:10:19;11.82;;;3.50;;
55672;SDS011;41554;45.366;20.400;2023-04-29T14:12:45;4.47;;;2.15;;
55672;SDS011;41554;45.366;20.400;2023-04-29T14:15:12;6.70;;;2.60;;
55672;SDS011;41554;45.366;20.400;2023-04-29T14:17:39;3.75;;;3.03;;
55672;SDS011;41554;45.366;20.400;2023-04-29T14:20:05;3.85;;;2.85;;
55672;SDS011;41554;45.366;20.400;2023-04-29T14:22:31;2.97;;;2.55;;
55672;SDS011;41554;45.366;20.400;2023-04-29T14:24:57;5.97;;;2.50;;
55672;SDS011;41554;45.366;20.400;2023-04-29T14:27:23;3.85;;;2.13;;
55672;SDS011;41554;45.366;20.400;2023-04-29T14:29:50;3.90;;;2.85;;
55672;SDS011;41554;45.366;20.400;2023-04-29T14:32:16;6.45;;;2.38;;
55672;SDS011;41554;45.366;20.400;2023-04-29T14:34:42;13.95;;;7.57;;
55672;SDS011;41554;45.366;20.400;2023-04-29T14:37:08;11.50;;;7.20;;
55672;SDS011;41554;45.366;20.400;2023-04-29T14:39:35;8.05;;;4.03;;
55672;SDS011;41554;45.366;20.400;2023-04-29T14:42:01;6.32;;;4.40;;
55672;SDS011;41554;45.366;20.400;2023-04-29T14:44:27;4.78;;;3.03;;
55672;SDS011;41554;45.366;20.400;2023-04-29T14:46:53;4.60;;;3.30;;
55672;SDS011;41554;45.366;20.400;2023-04-29T14:49:19;3.28;;;2.50;;
55672;SDS011;41554;45.366;20.400;2023-04-29T14:51:46;8.70;;;3.15;;
55672;SDS011;41554;45.366;20.400;2023-04-29T14:54:13;7.65;;;2.63;;
55672;SDS011;41554;45.366;20.400;2023-04-29T14:56:39;3.67;;;2.75;;
55672;SDS011;41554;45.366;20.400;2023-04-29T14:59:05;3.38;;;3.08;;